Time;durP1;ratioP1;P1;durP2;ratioP2;P2;SDS_P1;SDS_P2;PMS_P1;PMS_P2;Temp;Humidity;BMP_temperature;BMP_pressure;BME280_temperature;BME280_humidity;BME280_pressure;Samples;Min_cycle;Max_cycle;Signal;HPM_P1;HPM_P2
2023/02/27 00:00:32;;;;;;;2.37;1.13;;;6.50;99.90;;;7.16;46.19;102271.53;6062346;22;112339;-49
2023/02/27 00:02:58;;;;;;;1.20;0.97;;;6.30;99.90;;;7.12;45.90;102277.66;6067346;22;97420;-49
2023/02/27 00:05:24;;;;;;;2.17;1.33;;;6.30;99.90;;;7.16;49.29;102280.28;6086517;22;100464;-48
2023/02/27 00:07:51;;;;;;;2.63;1.20;;;6.20;99.90;;;7.32;48.21;102277.72;6066183;22;97825;-48
2023/02/27 00:10:17;;;;;;;1.47;0.93;;;6.40;99.90;;;7.30;47.23;102271.59;6067440;22;97513;-50
2023/02/27 00:12:43;;;;;;;1.50;0.80;;;6.40;99.90;;;7.18;48.54;102272.41;6068349;22;97592;-51
2023/02/27 00:15:17;;;;;;;1.73;1.20;;;6.30;99.90;;;6.86;46.30;102277.50;6072744;22;97739;-48
2023/02/27 00:17:44;;;;;;;2.20;1.23;;;6.10;99.90;;;6.68;45.92;102273.03;6065795;22;97230;-51
2023/02/27 00:20:13;;;;;;;2.03;1.60;;;5.90;99.90;;;6.64;47.29;102284.38;6072304;22;97906;-47
2023/02/27 00:22:41;;;;;;;0.97;0.80;;;5.90;99.90;;;6.57;47.33;102278.22;6068538;22;97432;-47
2023/02/27 00:25:08;;;;;;;1.37;1.10;;;5.90;99.90;;;6.57;46.78;102278.22;6100783;22;97998;-45
2023/02/27 00:27:33;;;;;;;3.00;1.27;;;6.00;99.90;;;6.48;48.93;102277.25;6069078;22;98990;-50
2023/02/27 00:30:00;;;;;;;2.10;1.10;;;5.90;99.90;;;6.29;46.57;102273.66;6073332;22;110359;-49
2023/02/27 00:32:26;;;;;;;1.30;0.87;;;5.70;99.90;;;6.37;47.76;102282.47;6069208;22;97540;-48
2023/02/27 00:34:51;;;;;;;2.37;0.90;;;5.70;99.90;;;6.30;48.38;102275.41;6073924;22;97786;-50
2023/02/27 00:37:17;;;;;;;1.53;0.93;;;5.70;99.90;;;6.30;48.08;102285.88;6070276;22;97416;-46
2023/02/27 00:39:43;;;;;;;1.17;0.80;;;5.70;99.90;;;6.32;51.47;102281.53;6069434;22;117152;-47
2023/02/27 00:42:09;;;;;;;1.80;1.07;;;5.60;99.90;;;6.53;52.19;102280.81;6074097;22;111327;-48
2023/02/27 00:44:34;;;;;;;0.70;0.70;;;5.80;99.90;;;6.49;50.29;102285.13;6069034;22;113247;-46
2023/02/27 00:47:00;;;;;;;1.47;0.90;;;5.80;99.90;;;6.41;45.80;102280.72;6074503;22;102354;-49
2023/02/27 00:49:26;;;;;;;1.83;1.30;;;5.80;99.90;;;6.36;47.69;102279.78;6069042;22;111569;-48
2023/02/27 00:51:52;;;;;;;2.23;1.23;;;5.80;99.90;;;6.31;47.96;102278.91;6072869;22;97452;-50
2023/02/27 00:54:18;;;;;;;2.20;1.00;;;5.70;99.90;;;6.30;51.19;102279.75;6073488;22;98337;-50
2023/02/27 00:56:44;;;;;;;1.43;0.90;;;5.60;99.90;;;6.30;51.22;102277.13;6089225;22;99693;-48
2023/02/27 00:59:10;;;;;;;1.60;1.20;;;5.60;99.90;;;6.17;46.37;102276.16;6073651;22;100220;-46
2023/02/27 01:01:36;;;;;;;0.63;0.63;;;5.60;99.90;;;6.20;50.08;102278.81;6065158;22;120447;-49
2023/02/27 01:04:02;;;;;;;1.37;0.87;;;5.60;99.90;;;6.24;50.71;102273.63;6066725;22;98272;-49
2023/02/27 01:06:28;;;;;;;2.60;0.83;;;5.60;99.90;;;6.23;45.85;102282.34;6066281;22;98629;-50
2023/02/27 01:08:54;;;;;;;1.00;0.97;;;5.70;99.90;;;6.28;48.19;102278.88;6071531;22;97472;-47
2023/02/27 01:11:21;;;;;;;9.43;1.23;;;5.60;99.90;;;6.06;46.58;102275.19;6072122;22;97336;-51
2023/02/27 01:13:46;;;;;;;1.93;0.90;;;5.50;99.90;;;5.91;46.15;102276.81;6067480;22;98215;-49
2023/02/27 01:16:13;;;;;;;1.03;0.80;;;5.30;99.90;;;5.78;48.34;102276.63;6064012;22;98324;-48
2023/02/27 01:18:39;;;;;;;1.83;1.07;;;5.20;99.90;;;5.67;49.00;102274.81;6066087;22;97630;-48
2023/02/27 01:21:05;;;;;;;1.33;0.73;;;5.10;99.90;;;5.55;48.67;102272.06;6067494;22;98206;-49
2023/02/27 01:23:30;;;;;;;3.27;0.83;;;5.00;99.90;;;5.46;47.77;102271.97;6066727;22;106073;-55
2023/02/27 01:25:56;;;;;;;1.00;0.83;;;4.90;99.90;;;5.45;51.52;102275.44;6068415;22;100981;-47
2023/02/27 01:28:22;;;;;;;2.00;1.43;;;4.80;99.90;;;5.43;48.39;102269.31;6074087;22;113969;-50
2023/02/27 01:30:48;;;;;;;1.07;0.80;;;4.90;99.90;;;5.33;47.53;102268.31;6068446;22;122649;-47
2023/02/27 01:33:14;;;;;;;2.47;0.80;;;4.80;99.90;;;5.32;48.94;102258.72;6074414;22;107458;-45
2023/02/27 01:35:40;;;;;;;2.27;1.30;;;4.80;99.90;;;5.35;48.49;102265.72;6063254;22;115271;-46
2023/02/27 01:38:06;;;;;;;0.70;0.70;;;4.80;99.90;;;5.32;48.45;102257.84;6070043;22;97096;-49
2023/02/27 01:40:40;;;;;;;2.20;0.67;;;4.80;99.90;;;5.35;51.86;102261.38;6069074;22;97992;-51
2023/02/27 01:43:11;;;;;;;0.70;0.67;;;4.80;99.90;;;5.39;48.38;102257.06;6070343;22;101711;-49
2023/02/27 01:45:42;;;;;;;1.33;1.03;;;4.90;99.90;;;5.47;50.50;102264.97;6068946;22;98287;-51
2023/02/27 01:48:34;;;;;;;1.80;1.03;;;4.90;99.90;;;5.48;49.04;102262.38;6071240;22;97491;-49
2023/02/27 01:51:07;;;;;;;2.77;1.00;;;4.90;99.90;;;5.66;54.79;102270.44;6069504;22;97412;-47
2023/02/27 01:53:36;;;;;;;1.53;0.97;;;5.00;99.90;;;5.64;48.02;102255.56;6063848;22;97568;-51
2023/02/27 01:56:10;;;;;;;1.07;0.67;;;5.10;99.90;;;5.74;50.37;102264.38;6068281;22;98028;-46
2023/02/27 01:58:37;;;;;;;5.07;0.70;;;5.10;99.90;;;5.69;48.94;102261.72;6068370;22;97994;-50
2023/02/27 02:01:03;;;;;;;1.43;0.80;;;5.10;99.90;;;5.64;48.82;102264.31;6070993;22;107262;-49
2023/02/27 02:04:05;;;;;;;3.07;1.07;;;5.00;99.90;;;5.67;49.66;102264.34;6072371;22;98769;-52
2023/02/27 02:06:37;;;;;;;1.80;0.70;;;5.00;99.90;;;5.59;48.06;102262.50;6060888;22;101056;-48
2023/02/27 02:09:04;;;;;;;2.13;0.80;;;5.00;99.90;;;5.55;48.68;102264.22;6068561;22;97811;-46
2023/02/27 02:11:30;;;;;;;1.23;0.73;;;4.90;99.90;;;5.57;49.74;102262.47;6071153;22;97496;-47
2023/02/27 02:13:59;;;;;;;2.33;0.73;;;4.90;99.90;;;5.60;49.50;102257.28;6070078;22;98806;-48
2023/02/27 02:16:50;;;;;;;1.33;0.73;;;5.00;99.90;;;5.71;49.10;102261.75;6068536;22;97869;-52
2023/02/27 02:19:45;;;;;;;1.03;0.87;;;5.10;99.90;;;5.62;48.61;102259.91;6069082;22;97454;-48
2023/02/27 02:22:36;;;;;;;1.93;0.60;;;5.00;99.90;;;5.76;53.03;102254.81;5982287;22;97786;-49
2023/02/27 02:25:24;;;;;;;1.07;0.70;;;5.00;99.90;;;5.62;47.85;102255.53;6065162;22;102008;-48
2023/02/27 02:28:35;;;;;;;4.80;0.60;;;5.00;99.90;;;5.60;48.52;102246.81;6068126;22;98611;-49
2023/02/27 02:31:23;;;;;;;1.80;0.70;;;5.00;99.90;;;5.51;49.07;102251.09;6069647;22;98248;-48
2023/02/27 02:34:03;;;;;;;1.33;0.70;;;4.90;99.90;;;5.63;55.14;102241.59;6118232;22;98146;-47
2023/02/27 02:36:59;;;;;;;1.17;0.73;;;4.90;99.90;;;5.54;49.14;102241.50;6065439;23;98495;-46
2023/02/27 02:39:42;;;;;;;2.23;0.63;;;5.00;99.90;;;5.58;52.47;102243.28;6042001;23;102315;-46
2023/02/27 02:42:38;;;;;;;1.57;0.97;;;4.90;99.90;;;5.39;48.26;102246.59;6066548;23;97373;-45
2023/02/27 02:45:16;;;;;;;0.60;0.60;;;4.80;99.90;;;5.50;49.50;102241.47;6065856;22;97262;-47
2023/02/27 02:48:13;;;;;;;0.73;0.63;;;4.80;99.90;;;5.29;49.89;102255.19;6063750;23;98158;-46
2023/02/27 02:51:00;;;;;;;0.70;0.70;;;4.70;99.90;;;5.20;49.48;102255.06;6065121;23;97600;-47
2023/02/27 02:54:01;;;;;;;1.03;0.93;;;4.60;99.90;;;5.17;50.17;102260.28;6067793;22;97470;-50
2023/02/27 02:56:38;;;;;;;2.40;1.33;;;4.60;99.90;;;5.02;50.02;102256.63;6067024;23;97310;-44
2023/02/27 02:59:19;;;;;;;0.90;0.57;;;4.50;99.90;;;4.97;49.58;102257.44;6067490;23;101719;-45
2023/02/27 03:02:06;;;;;;;0.97;0.60;;;4.40;99.90;;;4.85;48.69;102263.38;6068197;23;97018;-47
2023/02/27 03:04:49;;;;;;;8.43;1.00;;;4.40;99.90;;;4.77;48.94;102259.75;6068031;22;97558;-53
2023/02/27 03:07:33;;;;;;;0.90;0.80;;;4.30;99.90;;;4.75;49.42;102266.72;6040826;23;97747;-47
2023/02/27 03:10:08;;;;;;;0.40;0.40;;;4.30;99.90;;;4.64;49.42;102265.69;6038863;23;101813;-44
2023/02/27 03:12:38;;;;;;;3.70;1.07;;;4.20;99.90;;;4.56;48.93;102264.69;6067434;23;97300;-48
2023/02/27 03:15:14;;;;;;;2.17;1.13;;;4.10;99.90;;;4.49;49.32;102266.34;6078185;22;97630;-47
2023/02/27 03:18:02;;;;;;;4.83;1.50;;;4.00;99.90;;;4.44;49.77;102268.00;6070839;23;97144;-44
2023/02/27 03:20:41;;;;;;;1.23;0.70;;;4.00;99.90;;;4.36;49.46;102278.34;6077527;23;98165;-46
2023/02/27 03:23:17;;;;;;;0.70;0.70;;;3.90;99.90;;;4.28;50.13;102269.50;6047948;23;100669;-47
2023/02/27 03:25:45;;;;;;;1.13;0.67;;;3.90;99.90;;;4.19;50.23;102274.56;6048123;23;97571;-47
2023/02/27 03:28:18;;;;;;;0.83;0.53;;;3.80;99.90;;;4.17;49.96;102278.91;6049880;23;97196;-47
2023/02/27 03:31:10;;;;;;;1.53;0.93;;;3.80;99.90;;;4.14;50.24;102281.47;6073084;23;97700;-47
2023/02/27 03:33:51;;;;;;;6.47;1.03;;;3.80;99.90;;;4.12;49.90;102275.34;6047718;23;97339;-46
2023/02/27 03:36:45;;;;;;;1.63;0.70;;;3.80;99.90;;;4.05;49.77;102276.06;6046180;23;97318;-47
2023/02/27 03:39:27;;;;;;;1.50;0.97;;;3.70;99.90;;;4.04;50.04;102279.53;6008379;23;98175;-43
2023/02/27 03:42:37;;;;;;;6.53;0.70;;;3.70;99.90;;;4.02;50.13;102283.88;6038346;22;97943;-49
2023/02/27 03:45:27;;;;;;;2.07;1.03;;;3.70;99.90;;;4.08;50.43;102282.25;6064240;22;103734;-49
2023/02/27 03:47:53;;;;;;;2.17;1.00;;;3.70;99.90;;;4.10;50.73;102284.88;6066058;22;96891;-46
2023/02/27 03:50:20;;;;;;;1.57;0.60;;;3.70;99.90;;;4.10;50.40;102284.88;6069752;23;106376;-47
2023/02/27 03:52:45;;;;;;;0.97;0.80;;;3.70;99.90;;;4.19;50.97;102290.25;6065589;22;98338;-44
2023/02/27 03:55:32;;;;;;;4.37;1.30;;;3.80;99.90;;;4.11;49.70;102294.47;6070713;22;97170;-46
2023/02/27 03:57:58;;;;;;;1.50;0.73;;;3.80;99.90;;;4.18;49.71;102293.72;6039330;23;97410;-46
2023/02/27 04:00:25;;;;;;;2.50;1.07;;;3.80;99.90;;;4.16;51.14;102298.91;6070634;23;97460;-46
2023/02/27 04:02:55;;;;;;;3.97;0.70;;;3.80;99.90;;;4.18;50.49;102293.72;6072377;22;98985;-48
2023/02/27 04:05:22;;;;;;;1.47;1.00;;;3.80;99.90;;;4.24;52.09;102293.81;6069606;22;101386;-51
2023/02/27 04:08:25;;;;;;;7.87;1.23;;;3.80;99.90;;;4.27;51.32;102293.88;6066377;22;100336;-44
2023/02/27 04:11:45;;;;;;;1.30;0.90;;;3.80;99.90;;;4.28;49.55;102306.09;6067359;22;97300;-45
2023/02/27 04:14:25;;;;;;;4.27;1.27;;;3.80;99.90;;;4.18;50.28;102301.56;6030864;22;102061;-47
2023/02/27 04:17:14;;;;;;;1.40;1.00;;;3.80;99.90;;;4.09;49.66;102304.03;6069086;22;97245;-46
2023/02/27 04:20:19;;;;;;;2.80;1.37;;;3.70;99.90;;;4.01;50.11;102303.00;6043579;22;97043;-46
2023/02/27 04:23:01;;;;;;;1.27;0.80;;;3.70;99.90;;;3.94;50.46;102311.59;6044083;22;97911;-45
2023/02/27 04:25:42;;;;;;;3.40;1.50;;;3.60;99.90;;;3.87;49.57;102306.25;6069984;22;97379;-44
2023/02/27 04:28:26;;;;;;;1.77;0.87;;;3.50;99.90;;;3.83;51.24;102306.16;6067514;22;100494;-45
2023/02/27 04:31:01;;;;;;;1.27;1.00;;;3.50;99.90;;;3.79;50.59;102306.97;6041721;22;98239;-47
2023/02/27 04:33:59;;;;;;;1.13;0.93;;;3.50;99.90;;;3.79;51.04;102305.25;6074145;22;97669;-45
2023/02/27 04:36:41;;;;;;;1.07;0.93;;;3.40;99.90;;;3.76;50.99;102309.50;6068011;22;101269;-45
2023/02/27 04:39:22;;;;;;;1.93;0.90;;;3.40;99.90;;;3.70;50.51;102315.50;6065816;23;99941;-45
2023/02/27 04:41:56;;;;;;;3.27;1.60;;;3.40;99.90;;;3.62;51.49;102313.59;6041260;22;96674;-51
2023/02/27 04:44:25;;;;;;;1.57;1.20;;;3.20;99.90;;;3.55;51.22;102320.44;6055556;22;97665;-45
2023/02/27 04:46:53;;;;;;;3.00;1.43;;;3.20;99.90;;;3.47;51.09;102322.00;6041844;22;97386;-45
2023/02/27 04:49:43;;;;;;;2.27;1.20;;;3.10;99.90;;;3.45;51.32;102328.91;6070596;23;100282;-44
2023/02/27 04:52:15;;;;;;;2.50;1.10;;;3.00;99.90;;;3.43;51.18;102325.41;6039688;23;98379;-45
2023/02/27 04:55:12;;;;;;;2.73;2.23;;;3.00;99.90;;;3.39;51.15;102334.03;6065203;22;97235;-48
2023/02/27 04:57:58;;;;;;;3.87;1.17;;;3.00;99.90;;;3.41;51.21;102332.31;6059840;22;98025;-44
2023/02/27 05:00:27;;;;;;;1.77;1.23;;;3.00;99.90;;;3.40;52.57;102339.28;6046207;23;97816;-45
2023/02/27 05:03:12;;;;;;;1.17;1.03;;;2.90;99.90;;;3.41;52.87;102342.75;6041913;22;97599;-46
2023/02/27 05:05:40;;;;;;;1.63;1.17;;;2.90;99.90;;;3.39;50.72;102337.50;6062811;22;98015;-45
2023/02/27 05:08:25;;;;;;;1.50;0.80;;;3.00;99.90;;;3.56;51.69;102340.47;6067147;22;97561;-48
2023/02/27 05:11:17;;;;;;;1.70;1.07;;;3.10;99.90;;;3.40;51.62;102336.66;6015520;22;99445;-47
2023/02/27 05:13:54;;;;;;;2.70;1.40;;;3.00;99.90;;;3.45;51.01;102341.97;6039432;22;98019;-46
2023/02/27 05:16:33;;;;;;;2.53;0.93;;;3.10;99.90;;;3.48;52.96;102334.22;6071143;22;97267;-47
2023/02/27 05:19:00;;;;;;;2.23;1.07;;;3.00;99.90;;;3.41;50.71;102337.53;6068351;22;100304;-45
2023/02/27 05:21:44;;;;;;;2.73;1.30;;;3.00;99.90;;;3.66;52.65;102334.56;6072198;22;120229;-46
2023/02/27 05:24:18;;;;;;;1.93;1.23;;;3.20;99.90;;;3.55;52.08;102347.41;6015480;23;100525;-44
2023/02/27 05:27:01;;;;;;;1.47;1.23;;;3.10;99.90;;;3.52;51.75;102351.69;6065747;22;97778;-45
2023/02/27 05:29:41;;;;;;;1.23;1.03;;;3.10;99.90;;;3.46;50.82;102357.63;6071900;22;98247;-46
2023/02/27 05:32:13;;;;;;;3.53;1.47;;;3.00;99.90;;;3.43;50.95;102351.50;6067025;22;102330;-47
2023/02/27 05:35:02;;;;;;;1.93;0.90;;;3.00;99.90;;;3.41;51.77;102350.59;6064122;22;97088;-49
2023/02/27 05:37:40;;;;;;;4.37;0.70;;;2.90;99.90;;;3.33;50.32;102354.75;6029829;23;97637;-47
2023/02/27 05:40:11;;;;;;;4.73;1.43;;;2.90;99.90;;;3.42;51.06;102361.03;6067758;23;101106;-47
2023/02/27 05:42:44;;;;;;;2.20;1.07;;;2.90;99.90;;;3.40;51.67;102356.66;6065993;23;98424;-44
2023/02/27 05:45:17;;;;;;;2.00;1.50;;;2.90;99.90;;;3.44;53.51;102364.56;6046040;23;97714;-45
2023/02/27 05:47:51;;;;;;;2.20;1.40;;;2.90;99.90;;;3.36;50.27;102366.16;6041510;23;97471;-44
2023/02/27 05:50:27;;;;;;;1.57;1.40;;;2.90;99.90;;;3.43;53.50;102372.38;6046625;23;97693;-46
2023/02/27 05:52:57;;;;;;;2.70;1.10;;;2.90;99.90;;;3.44;50.94;102374.13;6041010;23;99404;-45
2023/02/27 05:55:27;;;;;;;1.60;1.20;;;2.90;99.90;;;3.47;51.22;102376.78;6062023;23;99811;-46
2023/02/27 05:57:57;;;;;;;1.30;0.97;;;2.90;99.90;;;3.45;50.60;102362.84;6042293;23;97557;-44
2023/02/27 06:00:44;;;;;;;3.73;1.10;;;2.90;99.90;;;3.29;51.08;102374.69;6047840;23;97354;-44
2023/02/27 06:03:10;;;;;;;1.20;0.90;;;2.80;99.90;;;3.39;51.67;102370.53;6070341;23;100984;-46
2023/02/27 06:05:40;;;;;;;4.87;1.73;;;2.90;99.90;;;3.28;49.84;102367.69;6041203;23;97269;-47
2023/02/27 06:08:06;;;;;;;1.17;1.07;;;2.90;99.90;;;3.28;53.21;102371.19;6047409;23;97567;-46
2023/02/27 06:10:32;;;;;;;1.77;1.33;;;2.80;99.90;;;3.42;53.73;102376.69;6073661;23;112062;-45
2023/02/27 06:12:57;;;;;;;2.50;1.27;;;2.90;99.90;;;3.36;51.57;102389.63;6070443;23;97376;-45
2023/02/27 06:15:23;;;;;;;1.13;0.67;;;2.80;99.90;;;3.25;50.38;102381.56;6071064;23;115929;-48
2023/02/27 06:17:49;;;;;;;0.80;0.80;;;2.80;99.90;;;3.25;50.88;102383.28;6067988;23;112254;-48
2023/02/27 06:20:15;;;;;;;1.67;1.13;;;2.80;99.90;;;3.38;53.66;102389.66;6071276;23;97773;-46
2023/02/27 06:22:40;;;;;;;2.10;1.47;;;2.80;99.90;;;3.20;51.00;102385.81;6070665;23;97350;-47
2023/02/27 06:25:07;;;;;;;2.43;1.23;;;2.70;99.90;;;3.26;53.84;102385.94;6073919;22;97436;-46
2023/02/27 06:27:33;;;;;;;2.53;1.47;;;2.70;99.90;;;3.35;50.92;102389.59;6080236;23;97524;-48
2023/02/27 06:29:58;;;;;;;2.10;0.87;;;2.80;99.90;;;3.22;52.00;102394.56;6078278;23;103704;-45
2023/02/27 06:32:24;;;;;;;1.23;0.90;;;2.70;99.90;;;3.21;50.79;102387.56;6082402;23;98480;-45
2023/02/27 06:34:52;;;;;;;1.83;1.50;;;2.70;99.90;;;3.03;50.48;102388.88;6088645;22;97583;-48
2023/02/27 06:37:17;;;;;;;2.20;1.10;;;2.60;99.90;;;3.08;51.24;102398.56;6110111;22;97134;-46
2023/02/27 06:39:43;;;;;;;5.13;0.70;;;2.60;99.90;;;3.16;51.51;102399.59;6081013;22;115261;-45
2023/02/27 06:42:09;;;;;;;2.33;1.23;;;2.60;99.90;;;3.10;53.33;102409.91;6112067;22;112151;-46
2023/02/27 06:44:34;;;;;;;1.53;1.43;;;2.50;99.90;;;2.96;51.63;102406.09;6110667;22;119430;-55
2023/02/27 06:47:00;;;;;;;0.80;0.70;;;2.50;99.90;;;3.07;55.56;102415.06;6107761;22;114758;-44
2023/02/27 06:49:26;;;;;;;8.90;1.30;;;2.50;99.90;;;3.09;51.89;102408.16;6111739;22;105020;-45
2023/02/27 06:51:52;;;;;;;1.20;1.10;;;2.60;99.90;;;3.03;51.52;102418.44;6105555;22;114035;-46
2023/02/27 06:54:17;;;;;;;3.73;1.80;;;2.60;99.90;;;3.02;51.54;102419.28;6107981;22;100895;-45
2023/02/27 06:56:44;;;;;;;2.47;1.23;;;2.60;99.90;;;3.01;52.64;102414.91;6105343;22;102775;-45
2023/02/27 06:59:10;;;;;;;1.47;0.93;;;2.60;99.90;;;3.12;53.52;102425.59;6108595;22;97499;-47
2023/02/27 07:01:35;;;;;;;2.57;1.00;;;2.70;99.90;;;2.96;52.33;102416.53;6105356;22;97285;-46
2023/02/27 07:04:01;;;;;;;1.40;1.23;;;2.70;99.90;;;3.23;52.46;102422.38;6103196;22;97435;-45
2023/02/27 07:06:27;;;;;;;2.03;1.20;;;2.90;99.90;;;3.32;53.00;102415.59;6075510;22;98157;-46
2023/02/27 07:08:53;;;;;;;3.40;2.07;;;2.90;99.90;;;3.33;53.33;102419.97;6095381;22;105266;-45
2023/02/27 07:11:18;;;;;;;3.43;1.00;;;3.00;99.90;;;3.44;51.80;102426.31;6098905;22;122903;-45
2023/02/27 07:13:44;;;;;;;1.33;1.00;;;3.20;99.90;;;3.38;52.72;102420.97;6097589;22;102279;-45
2023/02/27 07:16:10;;;;;;;2.53;0.97;;;3.10;99.90;;;3.37;52.83;102420.09;6076147;22;107316;-46
2023/02/27 07:18:36;;;;;;;1.93;1.43;;;3.10;99.90;;;3.47;52.48;102421.16;6096446;22;114387;-46
2023/02/27 07:21:02;;;;;;;9.83;2.13;;;3.20;99.90;;;3.50;54.12;102426.47;6102437;22;122142;-49
2023/02/27 07:23:28;;;;;;;2.23;1.57;;;3.20;99.90;;;3.48;53.22;102426.44;6102123;22;97418;-46
2023/02/27 07:25:53;;;;;;;3.93;1.60;;;3.20;99.90;;;3.52;52.89;102424.75;6098010;22;97423;-48
2023/02/27 07:28:19;;;;;;;2.50;1.67;;;3.30;99.90;;;3.54;52.96;102428.28;6103203;22;127171;-46
2023/02/27 07:30:45;;;;;;;8.10;2.33;;;3.30;99.90;;;3.56;52.49;102426.56;6094661;22;123146;-49
2023/02/27 07:33:11;;;;;;;8.03;1.50;;;3.30;99.90;;;3.57;52.52;102441.38;6097534;22;97096;-48
2023/02/27 07:35:37;;;;;;;1.80;1.27;;;3.30;99.90;;;3.60;53.48;102441.44;6092694;22;99770;-47
2023/02/27 07:38:03;;;;;;;1.37;1.13;;;3.30;99.90;;;3.59;52.87;102442.28;6100167;22;98235;-49
2023/02/27 07:40:29;;;;;;;3.97;1.53;;;3.40;99.90;;;3.60;53.32;102441.44;6100690;22;97698;-52
2023/02/27 07:42:55;;;;;;;2.13;1.50;;;3.40;99.90;;;3.66;52.98;102444.19;6095493;22;105555;-53
2023/02/27 07:45:21;;;;;;;1.63;1.27;;;3.50;99.90;;;3.78;54.20;102444.47;6101682;22;97406;-53
2023/02/27 07:47:47;;;;;;;3.63;1.33;;;3.60;99.90;;;3.79;52.55;102451.44;6096529;22;98559;-51
2023/02/27 07:50:14;;;;;;;3.70;1.43;;;3.60;99.90;;;3.91;52.39;102460.38;6103914;22;97478;-45
2023/02/27 07:52:41;;;;;;;2.87;1.53;;;3.80;99.90;;;3.93;52.79;102450.84;6094547;22;97605;-50
2023/02/27 07:55:08;;;;;;;3.50;1.37;;;3.80;99.90;;;3.98;52.78;102457.03;6072112;22;98186;-52
2023/02/27 07:57:34;;;;;;;2.07;1.73;;;3.80;99.90;;;4.11;53.07;102459.03;6100915;22;97476;-55
2023/02/27 08:00:00;;;;;;;2.13;1.90;;;3.90;99.90;;;4.23;52.30;102454.03;6098210;22;98424;-46
2023/02/27 08:02:25;;;;;;;2.63;1.57;;;4.00;99.90;;;4.45;51.55;102457.91;6101070;22;97767;-53
2023/02/27 08:04:51;;;;;;;1.60;1.50;;;4.20;99.90;;;4.67;53.36;102451.34;6096826;22;99817;-49
2023/02/27 08:07:17;;;;;;;5.77;1.50;;;4.30;99.90;;;4.79;52.67;102451.56;6099727;22;98147;-50
2023/02/27 08:09:43;;;;;;;11.07;1.83;;;4.40;99.90;;;5.03;50.00;102457.16;6090542;22;98168;-54
2023/02/27 08:12:09;;;;;;;2.83;2.00;;;4.70;99.90;;;4.95;49.63;102445.72;6099568;22;103977;-53
2023/02/27 08:14:35;;;;;;;2.03;1.20;;;4.70;99.90;;;4.95;49.85;102452.69;6100326;22;97540;-48
2023/02/27 08:17:00;;;;;;;3.27;1.27;;;4.70;99.90;;;4.84;49.72;102451.63;6096799;22;98357;-51
2023/02/27 08:19:26;;;;;;;2.53;1.83;;;4.70;99.90;;;5.01;53.88;102458.00;6097007;22;97465;-56
2023/02/27 08:21:52;;;;;;;1.93;1.50;;;4.70;99.90;;;4.91;49.09;102456.09;6085939;22;97316;-49
2023/02/27 08:24:18;;;;;;;0.97;0.90;;;4.70;99.90;;;4.88;48.98;102456.03;6063070;22;97649;-55
2023/02/27 08:26:44;;;;;;;1.70;1.57;;;4.70;99.90;;;4.79;48.75;102446.34;6057434;22;97693;-54
2023/02/27 08:29:09;;;;;;;4.07;1.53;;;4.70;99.90;;;4.91;48.85;102456.97;6065513;22;113341;-62
2023/02/27 08:31:35;;;;;;;2.70;1.17;;;4.80;99.90;;;5.02;49.37;102450.19;6054393;22;97398;-52
2023/02/27 08:34:01;;;;;;;1.77;1.20;;;4.90;99.90;;;5.45;52.64;102456.03;6046131;22;99188;-56
2023/02/27 08:36:27;;;;;;;2.00;1.80;;;5.10;99.90;;;5.50;47.08;102458.75;6068206;22;98068;-52
2023/02/27 08:38:53;;;;;;;1.77;1.10;;;5.20;99.90;;;5.40;47.04;102457.72;6062542;22;101787;-53
2023/02/27 08:41:18;;;;;;;4.33;1.73;;;5.20;99.90;;;5.30;47.18;102450.59;6066078;22;98504;-45
2023/02/27 08:43:44;;;;;;;1.90;1.40;;;5.10;99.90;;;5.50;51.66;102459.63;6061952;22;98258;-51
2023/02/27 08:46:10;;;;;;;1.47;1.07;;;5.20;99.90;;;5.59;48.81;102453.63;6067955;22;98534;-46
2023/02/27 08:48:36;;;;;;;2.43;1.30;;;5.30;99.90;;;5.42;47.16;102458.63;6072200;22;98741;-52
2023/02/27 08:51:02;;;;;;;3.03;2.00;;;5.30;99.90;;;5.33;47.21;102448.00;6069211;22;97669;-55
2023/02/27 08:53:28;;;;;;;1.60;1.47;;;5.20;99.90;;;5.39;47.88;102455.97;6067439;22;97534;-55
2023/02/27 08:55:54;;;;;;;8.43;1.73;;;5.30;99.90;;;5.43;47.26;102457.75;6068889;22;98377;-54
2023/02/27 08:58:20;;;;;;;2.73;1.60;;;5.30;99.90;;;5.62;51.45;102454.53;6074636;22;97310;-53
2023/02/27 09:00:46;;;;;;;3.13;1.33;;;5.40;99.90;;;5.65;46.96;102458.94;6057547;22;97237;-52
2023/02/27 09:03:12;;;;;;;2.10;1.30;;;5.50;99.90;;;5.85;49.76;102456.56;6069136;22;98006;-54
2023/02/27 09:05:38;;;;;;;2.80;1.37;;;5.60;99.90;;;6.08;48.44;102460.41;6066633;22;104883;-53
2023/02/27 09:08:04;;;;;;;2.10;1.07;;;5.80;99.90;;;6.17;45.97;102460.47;6060651;22;97443;-53
2023/02/27 09:10:31;;;;;;;5.77;1.63;;;5.90;99.90;;;6.52;51.38;102459.97;6068049;22;99152;-55
2023/02/27 09:12:58;;;;;;;1.97;1.10;;;6.10;99.90;;;6.44;49.60;102459.00;6064777;22;103883;-54
2023/02/27 09:15:24;;;;;;;2.97;1.37;;;6.10;99.90;;;6.51;45.15;102461.72;6067628;22;98391;-49
2023/02/27 09:17:50;;;;;;;2.60;1.20;;;6.20;99.90;;;6.32;45.63;102451.03;6062170;22;97661;-49
2023/02/27 09:20:16;;;;;;;2.20;1.77;;;6.10;99.90;;;6.22;46.33;102461.44;6064862;22;97258;-50
2023/02/27 09:25:09;;;;;;;2.37;1.43;;;6.10;99.90;;;6.32;45.59;102464.13;6060023;22;99135;-47
2023/02/27 09:27:35;;;;;;;5.17;1.70;;;6.10;99.90;;;6.38;45.55;102464.22;6062888;22;112021;-49
2023/02/27 09:30:01;;;;;;;1.93;1.20;;;6.20;99.90;;;6.40;44.71;102462.47;6036118;22;98011;-46
2023/02/27 09:32:27;;;;;;;3.23;1.20;;;6.30;99.90;;;6.36;45.70;102452.78;6031768;22;98513;-49
2023/02/27 09:34:53;;;;;;;2.23;1.50;;;6.20;99.90;;;6.63;48.87;102460.06;6055720;22;97941;-48
2023/02/27 09:37:19;;;;;;;1.77;1.20;;;6.40;99.90;;;6.51;45.28;102455.59;6060116;22;97522;-48
2023/02/27 09:39:46;;;;;;;2.97;1.47;;;6.40;99.90;;;6.49;45.40;102454.69;6069243;22;98444;-49
2023/02/27 09:43:02;;;;;;;1.30;1.17;;;6.50;99.90;;;6.46;45.81;102457.28;6062243;22;97821;-47
2023/02/27 09:45:35;;;;;;;1.47;1.03;;;6.50;99.90;;;6.83;50.35;102448.88;6041213;22;101609;-50
2023/02/27 09:48:23;;;;;;;2.30;0.50;;;6.60;99.90;;;7.40;52.33;102458.03;6021598;22;98005;-52
2023/02/27 09:50:51;;;;;;;2.23;0.50;;;7.10;99.90;;;8.02;51.22;102454.81;6070277;22;97597;-50
2023/02/27 09:53:30;;;;;;;2.03;0.50;;;7.80;99.90;;;8.61;49.68;102456.75;6055289;22;98616;-47
2023/02/27 09:56:05;;;;;;;1.47;0.80;;;8.40;99.90;;;9.45;47.65;102453.16;6084474;22;99684;-51
2023/02/27 09:58:55;;;;;;;0.63;0.63;;;9.20;99.90;;;10.53;45.04;102451.78;6063880;22;98772;-49
2023/02/27 10:01:36;;;;;;;0.50;0.50;;;10.40;99.90;;;11.41;43.35;102453.66;6055347;22;97547;-49
2023/02/27 10:04:37;;;;;;;1.03;0.40;;;11.60;99.90;;;11.62;41.70;102448.13;6053578;22;98720;-49
2023/02/27 10:07:30;;;;;;;0.97;0.67;;;11.80;94.10;;;12.15;41.30;102454.56;6072625;22;97959;-52
2023/02/27 10:10:32;;;;;;;1.77;0.50;;;12.40;97.60;;;12.61;40.37;102450.34;6090443;22;97745;-50
2023/02/27 10:13:27;;;;;;;1.70;0.87;;;12.90;97.00;;;12.88;40.44;102454.34;6082067;22;97649;-48
2023/02/27 10:15:54;;;;;;;0.60;0.17;;;13.30;96.40;;;13.09;39.75;102448.66;6085412;22;97505;-47
2023/02/27 10:18:32;;;;;;;1.70;0.50;;;13.50;95.30;;;13.26;38.31;102445.72;6089463;22;98195;-48
2023/02/27 10:21:18;;;;;;;1.00;0.60;;;13.70;94.40;;;13.39;39.07;102450.78;6058693;22;98200;-48
2023/02/27 10:24:22;;;;;;;0.87;0.20;;;13.90;94.30;;;13.50;38.51;102457.66;6092722;22;98176;-47
2023/02/27 10:26:54;;;;;;;0.30;0.30;;;14.00;93.90;;;13.56;38.97;102457.53;6084847;22;98449;-48
2023/02/27 10:29:43;;;;;;;0.60;0.43;;;14.10;94.00;;;13.61;38.68;102453.03;6090951;22;97577;-47
2023/02/27 10:32:29;;;;;;;0.57;0.43;;;14.10;93.60;;;13.73;37.79;102462.47;6086089;22;97653;-48
2023/02/27 10:35:08;;;;;;;0.30;0.20;;;14.20;92.60;;;13.73;36.76;102459.84;6064146;22;98141;-50
2023/02/27 10:37:37;;;;;;;0.83;0.40;;;14.20;90.70;;;13.80;37.65;102466.78;6085716;22;97525;-46
2023/02/27 10:40:05;;;;;;;0.30;0.30;;;14.30;92.00;;;13.81;37.56;102463.22;6060865;22;97977;-49
2023/02/27 10:42:37;;;;;;;0.73;0.40;;;14.30;92.10;;;13.83;37.60;102466.72;6089082;22;98399;-48
2023/02/27 10:45:13;;;;;;;0.17;0.17;;;14.40;92.10;;;13.93;36.80;102458.53;6082444;22;98043;-49
2023/02/27 10:47:40;;;;;;;0.13;0.13;;;14.40;90.40;;;13.88;36.77;102471.00;6088959;22;98059;-50
2023/02/27 10:52:52;;;;;;;0.93;0.30;;;14.40;91.30;;;14.03;36.69;102458.31;6060551;22;98124;-50